createdAt,value
2023-05-26T00:01:57.609Z,55.40
2023-05-26T00:04:28.275Z,43.55
2023-05-26T00:06:58.932Z,47.20
2023-05-26T00:09:29.684Z,51.88
2023-05-26T00:12:00.291Z,43.15
2023-05-26T00:14:31.021Z,45.45
2023-05-26T00:17:01.625Z,45.47
2023-05-26T00:19:37.728Z,47.20
2023-05-26T00:22:08.666Z,47.00
2023-05-26T00:24:39.850Z,49.03
2023-05-26T00:27:10.665Z,53.45
2023-05-26T00:29:41.069Z,57.83
2023-05-26T00:32:11.737Z,41.88
2023-05-26T00:34:44.586Z,55.17
2023-05-26T00:37:17.351Z,44.58
2023-05-26T00:39:48.569Z,47.55
2023-05-26T00:42:22.429Z,50.72
2023-05-26T00:44:54.157Z,44.65
2023-05-26T00:47:24.852Z,47.67
2023-05-26T00:49:56.939Z,53.70
2023-05-26T00:52:27.753Z,57.17
2023-05-26T00:54:59.196Z,48.22
2023-05-26T00:57:30.158Z,60.47
2023-05-26T01:00:00.575Z,51.55
2023-05-26T01:02:31.370Z,49.83
2023-05-26T01:05:02.383Z,62.25
2023-05-26T01:07:33.318Z,60.30
2023-05-26T01:10:04.294Z,53.50
2023-05-26T01:12:47.223Z,63.10
2023-05-26T01:15:24.885Z,53.20
2023-05-26T01:18:01.429Z,58.22
2023-05-26T01:20:40.500Z,51.42
2023-05-26T01:23:29.563Z,54.72
2023-05-26T01:26:13.062Z,52.25
2023-05-26T01:28:44.570Z,55.53
2023-05-26T01:31:17.851Z,57.15
2023-05-26T01:34:00.193Z,58.35
2023-05-26T01:36:31.663Z,66.05
2023-05-26T01:39:03.151Z,69.15
2023-05-26T01:41:38.449Z,74.63
2023-05-26T01:44:15.721Z,79.90
2023-05-26T01:46:53.269Z,81.55
2023-05-26T01:49:26.150Z,77.53
2023-05-26T01:52:00.674Z,79.70
2023-05-26T01:54:35.214Z,84.63
2023-05-26T01:57:07.477Z,78.55
2023-05-26T01:59:38.713Z,88.18
2023-05-26T02:02:09.359Z,73.65
2023-05-26T02:04:41.784Z,93.50
2023-05-26T02:07:12.877Z,76.20
2023-05-26T02:09:44.224Z,75.55
2023-05-26T02:12:16.069Z,85.97
2023-05-26T02:14:46.231Z,87.18
2023-05-26T02:17:19.398Z,83.95
2023-05-26T02:19:50.602Z,81.05
2023-05-26T02:22:23.108Z,76.25
2023-05-26T02:24:53.737Z,71.35
2023-05-26T02:27:24.816Z,67.05
2023-05-26T02:29:58.599Z,86.20
2023-05-26T02:32:31.756Z,66.30
2023-05-26T02:35:02.249Z,72.88
2023-05-26T02:37:33.734Z,77.05
2023-05-26T02:40:07.054Z,73.40
2023-05-26T02:42:37.762Z,69.18
2023-05-26T02:45:10.282Z,78.53
2023-05-26T02:47:42.194Z,78.05
2023-05-26T02:50:12.625Z,71.75
2023-05-26T02:52:43.214Z,79.60
2023-05-26T02:55:14.019Z,71.80
2023-05-26T02:57:44.806Z,66.28
2023-05-26T03:00:16.379Z,67.68
2023-05-26T03:02:47.307Z,76.05
2023-05-26T03:05:18.927Z,66.25
2023-05-26T03:07:49.832Z,69.47
2023-05-26T03:10:20.819Z,67.47
2023-05-26T03:12:51.210Z,65.47
2023-05-26T03:15:21.805Z,78.00
2023-05-26T03:17:55.301Z,65.70
2023-05-26T03:20:25.438Z,74.03
2023-05-26T03:22:57.755Z,79.05
2023-05-26T03:25:30.666Z,61.75
2023-05-26T03:28:01.187Z,65.85
2023-05-26T03:30:32.299Z,78.28
2023-05-26T03:33:03.743Z,81.90
2023-05-26T03:35:34.763Z,69.90
2023-05-26T03:38:06.309Z,78.60
2023-05-26T03:40:37.761Z,74.95
2023-05-26T03:43:08.961Z,85.18
2023-05-26T03:45:47.439Z,96.28
2023-05-26T03:48:18.762Z,105.47
2023-05-26T03:50:50.270Z,90.22
2023-05-26T03:53:20.953Z,98.88
2023-05-26T03:55:51.772Z,96.03
2023-05-26T03:58:22.255Z,105.35
2023-05-26T04:00:53.724Z,97.75
2023-05-26T04:03:24.893Z,96.57
2023-05-26T04:05:57.485Z,104.70
2023-05-26T04:08:32.821Z,96.75
2023-05-26T04:11:05.903Z,93.50
2023-05-26T04:13:43.380Z,94.88
2023-05-26T04:16:14.354Z,94.20
2023-05-26T04:18:45.533Z,87.65
2023-05-26T04:21:16.700Z,87.28
2023-05-26T04:23:53.585Z,83.10
2023-05-26T04:26:30.712Z,79.97
2023-05-26T04:29:23.892Z,85.50
2023-05-26T04:32:25.806Z,85.63
2023-05-26T04:35:08.374Z,83.97
2023-05-26T04:37:43.491Z,71.78
2023-05-26T04:40:15.035Z,68.65
2023-05-26T04:42:49.796Z,65.53
2023-05-26T04:45:21.054Z,77.90
2023-05-26T04:47:54.757Z,71.28
2023-05-26T04:50:26.949Z,69.63
2023-05-26T04:53:01.791Z,68.10
2023-05-26T04:55:32.834Z,59.83
2023-05-26T04:58:03.773Z,77.18
2023-05-26T05:00:36.754Z,78.00
2023-05-26T05:03:26.854Z,62.67
2023-05-26T05:06:07.035Z,71.15
2023-05-26T05:08:39.432Z,58.03
2023-05-26T05:11:10.400Z,74.80
2023-05-26T05:13:41.544Z,76.38
2023-05-26T05:16:12.066Z,72.32
2023-05-26T05:18:43.362Z,74.75
2023-05-26T05:21:16.027Z,107.15
2023-05-26T05:23:47.787Z,78.88
2023-05-26T05:26:18.305Z,77.90
2023-05-26T05:28:48.664Z,68.03
2023-05-26T05:31:36.055Z,62.03
2023-05-26T05:34:08.368Z,52.90
2023-05-26T05:36:39.195Z,52.38
2023-05-26T05:39:11.272Z,31.50
2023-05-26T05:41:43.019Z,31.23
2023-05-26T05:44:13.445Z,27.42
2023-05-26T05:46:44.427Z,33.45
2023-05-26T05:49:24.334Z,28.63
2023-05-26T05:52:00.421Z,19.20
2023-05-26T05:54:32.033Z,20.45
2023-05-26T05:57:04.450Z,19.55
2023-05-26T05:59:35.442Z,18.85
2023-05-26T06:02:06.225Z,14.48
2023-05-26T06:04:37.655Z,14.65
2023-05-26T06:07:08.060Z,12.80
2023-05-26T06:09:39.349Z,16.83
2023-05-26T06:12:14.778Z,17.58
2023-05-26T06:14:46.911Z,17.65
2023-05-26T06:17:18.571Z,12.27
2023-05-26T06:19:51.602Z,12.65
2023-05-26T06:22:22.659Z,17.02
2023-05-26T06:24:54.842Z,11.35
2023-05-26T06:27:26.118Z,16.40
2023-05-26T06:29:57.467Z,16.88
2023-05-26T06:32:30.533Z,17.08
2023-05-26T06:35:00.889Z,16.95
2023-05-26T06:37:32.112Z,25.20
2023-05-26T06:40:02.695Z,22.58
2023-05-26T06:42:39.497Z,19.40
2023-05-26T06:45:11.303Z,21.52
2023-05-26T06:47:44.447Z,16.27
2023-05-26T06:50:19.918Z,27.80
2023-05-26T06:52:53.093Z,17.05
2023-05-26T06:55:23.624Z,17.35
2023-05-26T06:57:57.418Z,15.85
2023-05-26T07:00:28.418Z,18.40
2023-05-26T07:03:12.088Z,24.15
2023-05-26T07:05:51.659Z,10.30
2023-05-26T07:08:28.113Z,22.27
2023-05-26T07:11:10.912Z,15.50
2023-05-26T07:13:42.028Z,34.30
2023-05-26T07:16:13.407Z,17.15
2023-05-26T07:18:43.963Z,20.80
2023-05-26T07:21:17.480Z,10.00
2023-05-26T07:23:48.986Z,12.45
2023-05-26T07:26:20.027Z,15.63
2023-05-26T07:28:56.228Z,10.77
2023-05-26T07:31:29.061Z,8.10
2023-05-26T07:34:00.591Z,18.23
2023-05-26T07:36:31.052Z,19.40
2023-05-26T07:39:04.528Z,13.55
2023-05-26T07:41:37.181Z,13.88
2023-05-26T07:44:10.123Z,10.88
2023-05-26T07:46:41.028Z,11.93
2023-05-26T07:49:11.952Z,18.15
2023-05-26T07:51:42.709Z,15.90
2023-05-26T07:54:12.920Z,14.25
2023-05-26T07:56:43.426Z,15.52
2023-05-26T07:59:15.885Z,15.00
2023-05-26T08:01:50.308Z,16.48
2023-05-26T08:04:20.534Z,20.73
2023-05-26T08:06:51.579Z,17.35
2023-05-26T08:09:21.984Z,15.88
2023-05-26T08:11:52.532Z,10.70
2023-05-26T08:14:25.270Z,15.88
2023-05-26T08:16:56.418Z,16.38
2023-05-26T08:19:28.032Z,17.27
2023-05-26T08:21:59.264Z,19.52
2023-05-26T08:24:30.647Z,11.40
2023-05-26T08:27:01.607Z,16.90
2023-05-26T08:29:32.447Z,10.32
2023-05-26T08:32:02.703Z,21.30
2023-05-26T08:34:33.560Z,14.10
2023-05-26T08:37:05.517Z,19.20
2023-05-26T08:39:35.713Z,20.92
2023-05-26T08:42:08.938Z,22.77
2023-05-26T08:44:40.044Z,25.25
2023-05-26T08:47:13.509Z,27.23
2023-05-26T08:49:55.117Z,27.08
2023-05-26T08:52:26.256Z,19.92
2023-05-26T08:54:59.117Z,21.58
2023-05-26T08:57:35.065Z,19.05
2023-05-26T09:00:06.723Z,24.58
2023-05-26T09:02:38.449Z,22.73
2023-05-26T09:05:09.423Z,26.80
2023-05-26T09:07:39.978Z,23.50
2023-05-26T09:10:27.724Z,28.77
2023-05-26T09:13:07.444Z,27.67
2023-05-26T09:15:38.996Z,25.35
2023-05-26T09:18:11.152Z,24.52
2023-05-26T09:20:43.135Z,26.38
2023-05-26T09:23:14.821Z,26.60
2023-05-26T09:25:46.893Z,17.02
2023-05-26T09:28:18.527Z,18.10
2023-05-26T09:30:50.194Z,17.30
2023-05-26T09:33:21.550Z,12.90
2023-05-26T09:35:52.622Z,20.40
2023-05-26T09:38:23.146Z,19.98
2023-05-26T09:40:54.795Z,18.58
2023-05-26T09:43:26.639Z,23.13
2023-05-26T09:45:57.525Z,22.10
2023-05-26T09:48:28.840Z,37.78
2023-05-26T09:51:00.280Z,20.23
2023-05-26T09:53:31.003Z,23.08
2023-05-26T09:56:04.122Z,17.58
2023-05-26T09:58:37.431Z,24.13
2023-05-26T10:01:08.574Z,25.30
2023-05-26T10:03:39.124Z,34.20
2023-05-26T10:06:09.276Z,41.33
2023-05-26T10:08:42.219Z,22.27
2023-05-26T10:11:12.932Z,37.58
2023-05-26T10:13:44.229Z,31.00
2023-05-26T10:16:15.974Z,35.83
2023-05-26T10:18:49.926Z,26.73
2023-05-26T10:21:23.173Z,34.85
2023-05-26T10:24:16.128Z,33.00
2023-05-26T10:27:10.170Z,34.10
2023-05-26T10:29:51.351Z,30.13
2023-05-26T10:32:40.075Z,26.38
2023-05-26T10:35:31.775Z,24.58
2023-05-26T10:38:05.638Z,25.60
2023-05-26T10:40:38.557Z,22.25
2023-05-26T10:43:17.170Z,26.85
2023-05-26T10:45:59.594Z,25.20
2023-05-26T10:48:41.212Z,32.83
2023-05-26T10:51:17.508Z,22.17
2023-05-26T10:53:48.817Z,46.65
2023-05-26T10:56:21.214Z,36.75
2023-05-26T10:58:52.911Z,30.67
2023-05-26T11:01:29.270Z,36.13
2023-05-26T11:04:11.211Z,35.22
2023-05-26T11:06:46.206Z,36.05
2023-05-26T11:09:17.938Z,39.88
2023-05-26T11:11:56.186Z,33.03
2023-05-26T11:14:35.643Z,76.00
2023-05-26T11:17:07.307Z,41.35
2023-05-26T11:19:38.705Z,44.72
2023-05-26T11:22:12.814Z,29.23
2023-05-26T11:24:44.918Z,35.10
2023-05-26T11:27:15.616Z,32.72
2023-05-26T11:29:53.416Z,40.72
2023-05-26T11:32:24.217Z,48.65
2023-05-26T11:34:55.176Z,45.42
2023-05-26T11:37:28.400Z,42.03
2023-05-26T11:39:58.747Z,35.75
2023-05-26T11:42:29.734Z,40.00
2023-05-26T11:45:00.445Z,40.70
2023-05-26T11:47:33.728Z,29.40
2023-05-26T11:50:11.277Z,24.42
2023-05-26T11:52:44.759Z,23.90
2023-05-26T11:55:22.139Z,23.10
2023-05-26T11:57:53.456Z,26.42
2023-05-26T12:00:24.436Z,32.15
2023-05-26T12:02:55.585Z,36.92
2023-05-26T12:05:31.759Z,35.47
2023-05-26T12:08:06.308Z,37.80
2023-05-26T12:10:38.127Z,42.10
2023-05-26T12:13:08.739Z,42.30
2023-05-26T12:15:40.140Z,34.13
2023-05-26T12:18:15.328Z,44.33
2023-05-26T12:20:49.742Z,41.80
2023-05-26T12:23:26.562Z,44.60
2023-05-26T12:25:57.190Z,39.35
2023-05-26T12:28:28.039Z,37.53
2023-05-26T12:30:58.921Z,31.30
2023-05-26T12:33:30.288Z,33.33
2023-05-26T12:36:01.618Z,37.13
2023-05-26T12:38:42.330Z,36.83
2023-05-26T12:41:15.465Z,36.38
2023-05-26T12:43:45.671Z,38.65
2023-05-26T12:46:16.369Z,49.08
2023-05-26T12:48:46.886Z,38.65
2023-05-26T12:51:18.763Z,39.03
2023-05-26T12:53:49.345Z,36.00
2023-05-26T12:56:20.757Z,44.67
2023-05-26T12:58:53.273Z,45.47
2023-05-26T13:01:26.399Z,39.95
2023-05-26T13:03:57.932Z,35.63
2023-05-26T13:06:29.257Z,36.55
2023-05-26T13:09:00.248Z,35.75
2023-05-26T13:11:30.676Z,39.38
2023-05-26T13:14:01.564Z,42.93
2023-05-26T13:16:32.463Z,40.05
2023-05-26T13:19:03.295Z,41.83
2023-05-26T13:21:33.835Z,37.88
2023-05-26T13:24:04.370Z,39.25
2023-05-26T13:26:36.113Z,40.28
2023-05-26T13:29:09.704Z,35.72
2023-05-26T13:31:43.519Z,34.42
2023-05-26T13:34:17.758Z,42.42
2023-05-26T13:36:48.265Z,36.97
2023-05-26T13:39:19.344Z,44.03
2023-05-26T13:41:50.331Z,37.65
2023-05-26T13:44:24.267Z,40.60
2023-05-26T13:46:55.915Z,40.85
2023-05-26T13:49:29.247Z,39.42
2023-05-26T13:52:04.676Z,35.50
2023-05-26T13:54:37.477Z,35.10
2023-05-26T13:57:09.549Z,34.92
2023-05-26T13:59:39.808Z,38.70
2023-05-26T14:02:10.499Z,35.80
2023-05-26T14:04:42.571Z,41.80
2023-05-26T14:07:16.170Z,35.70
2023-05-26T14:09:49.972Z,34.13
2023-05-26T14:12:21.244Z,40.17
2023-05-26T14:14:51.880Z,48.90
2023-05-26T14:17:23.029Z,35.40
2023-05-26T14:20:07.243Z,52.10
2023-05-26T14:22:38.860Z,39.58
2023-05-26T14:25:09.389Z,32.03
2023-05-26T14:27:40.911Z,28.90
2023-05-26T14:30:12.388Z,29.92
2023-05-26T14:32:43.071Z,28.13
2023-05-26T14:35:14.232Z,37.45
2023-05-26T14:37:44.605Z,38.85
2023-05-26T14:40:15.501Z,43.03
2023-05-26T14:42:46.946Z,54.78
2023-05-26T14:45:17.925Z,43.22
2023-05-26T14:47:49.137Z,29.88
2023-05-26T14:50:22.485Z,32.10
2023-05-26T14:52:54.426Z,27.27
2023-05-26T14:55:28.157Z,24.85
2023-05-26T14:57:59.878Z,28.92
2023-05-26T15:00:30.370Z,29.42
2023-05-26T15:03:01.012Z,35.25
2023-05-26T15:05:31.927Z,28.40
2023-05-26T15:08:05.847Z,23.88
2023-05-26T15:10:36.250Z,24.42
2023-05-26T15:13:07.397Z,26.10
2023-05-26T15:15:40.021Z,29.17
2023-05-26T15:18:11.992Z,28.85
2023-05-26T15:23:37.719Z,26.42
2023-05-26T15:26:08.312Z,22.25
2023-05-26T15:28:39.406Z,23.45
2023-05-26T15:31:10.347Z,30.58
2023-05-26T15:33:41.090Z,24.70
2023-05-26T15:36:24.533Z,33.22
2023-05-26T15:38:55.577Z,34.75
2023-05-26T15:41:28.856Z,30.27
2023-05-26T15:44:02.071Z,29.67
2023-05-26T15:46:33.178Z,24.23
2023-05-26T15:49:03.972Z,20.02
2023-05-26T15:51:34.869Z,21.58
2023-05-26T15:54:07.361Z,24.42
2023-05-26T15:56:37.477Z,20.85
2023-05-26T15:59:08.491Z,29.25
2023-05-26T16:01:40.500Z,25.67
2023-05-26T16:04:12.168Z,18.60
2023-05-26T16:06:43.627Z,17.63
2023-05-26T16:09:18.967Z,14.43
2023-05-26T16:11:49.386Z,15.32
2023-05-26T16:14:20.424Z,16.98
2023-05-26T16:16:51.574Z,17.25
2023-05-26T16:19:22.603Z,15.93
2023-05-26T16:21:52.989Z,16.65
2023-05-26T16:24:30.339Z,19.20
2023-05-26T16:27:01.974Z,21.38
2023-05-26T16:29:32.869Z,15.80
2023-05-26T16:32:03.483Z,16.70
2023-05-26T16:34:36.489Z,12.55
2023-05-26T16:37:06.973Z,15.30
2023-05-26T16:39:38.003Z,13.00
2023-05-26T16:42:08.591Z,13.88
2023-05-26T16:44:39.883Z,17.90
2023-05-26T16:47:11.038Z,21.15
2023-05-26T16:49:41.943Z,22.98
2023-05-26T16:52:12.679Z,18.02
2023-05-26T16:54:43.409Z,25.35
2023-05-26T16:57:14.105Z,22.13
2023-05-26T16:59:44.393Z,19.98
2023-05-26T17:02:15.132Z,16.02
2023-05-26T17:04:45.501Z,19.90
2023-05-26T17:07:16.305Z,20.50
2023-05-26T17:09:47.530Z,23.77
2023-05-26T17:12:18.085Z,20.00
2023-05-26T17:14:48.966Z,20.50
2023-05-26T17:17:19.616Z,16.23
2023-05-26T17:19:50.228Z,16.80
2023-05-26T17:22:20.619Z,21.45
2023-05-26T17:24:54.878Z,24.33
2023-05-26T17:27:25.449Z,21.05
2023-05-26T17:29:56.577Z,21.85
2023-05-26T17:32:27.510Z,21.73
2023-05-26T17:35:00.604Z,20.15
2023-05-26T17:37:31.574Z,30.02
2023-05-26T17:40:02.586Z,24.45
2023-05-26T17:42:33.448Z,26.52
2023-05-26T17:45:04.123Z,23.73
2023-05-26T17:47:35.358Z,25.77
2023-05-26T17:50:06.090Z,29.73
2023-05-26T17:52:36.841Z,21.00
2023-05-26T17:55:08.074Z,19.73
2023-05-26T17:57:38.977Z,22.38
2023-05-26T18:00:10.583Z,20.52
2023-05-26T18:02:43.620Z,19.30
2023-05-26T18:05:14.419Z,26.55
2023-05-26T18:07:47.711Z,20.67
2023-05-26T18:10:18.545Z,18.27
2023-05-26T18:12:49.128Z,18.33
2023-05-26T18:15:19.516Z,20.55
2023-05-26T18:17:49.741Z,28.10
2023-05-26T18:20:25.756Z,30.85
2023-05-26T18:22:57.159Z,24.67
2023-05-26T18:25:29.045Z,24.98
2023-05-26T18:27:59.958Z,28.98
2023-05-26T18:30:31.250Z,23.52
2023-05-26T18:33:02.059Z,26.70
2023-05-26T18:35:32.692Z,26.35
2023-05-26T18:38:03.218Z,23.55
2023-05-26T18:40:34.156Z,25.60
2023-05-26T18:43:05.603Z,27.52
2023-05-26T18:45:35.659Z,26.45
2023-05-26T18:48:08.078Z,29.92
2023-05-26T18:50:38.577Z,27.75
2023-05-26T18:53:09.166Z,27.00
2023-05-26T18:55:40.152Z,28.02
2023-05-26T18:58:10.493Z,28.30
2023-05-26T19:00:43.864Z,24.10
2023-05-26T19:03:19.205Z,27.70
2023-05-26T19:05:50.164Z,26.58
2023-05-26T19:08:21.021Z,20.05
2023-05-26T19:10:51.642Z,25.95
2023-05-26T19:13:22.725Z,23.92
2023-05-26T19:15:54.083Z,27.52
2023-05-26T19:18:24.344Z,23.70
2023-05-26T19:20:54.784Z,25.70
2023-05-26T19:23:27.257Z,23.70
2023-05-26T19:26:00.510Z,20.65
2023-05-26T19:28:31.298Z,24.55
2023-05-26T19:31:01.846Z,26.67
2023-05-26T19:33:32.961Z,24.23
2023-05-26T19:36:04.069Z,21.52
2023-05-26T19:38:35.384Z,14.80
2023-05-26T19:41:06.094Z,15.18
2023-05-26T19:43:36.837Z,11.52
2023-05-26T19:46:09.925Z,15.15
2023-05-26T19:48:40.156Z,13.52
2023-05-26T19:51:14.625Z,14.63
2023-05-26T19:53:45.204Z,17.58
2023-05-26T19:56:15.738Z,14.00
2023-05-26T19:58:47.418Z,11.80
2023-05-26T20:01:21.392Z,11.63
2023-05-26T20:03:53.146Z,12.32
2023-05-26T20:06:25.012Z,16.98
2023-05-26T20:08:58.725Z,15.25
2023-05-26T20:11:29.416Z,20.83
2023-05-26T20:14:00.218Z,13.02
2023-05-26T20:16:31.207Z,14.35
2023-05-26T20:19:02.174Z,12.25
2023-05-26T20:21:32.637Z,17.92
2023-05-26T20:24:03.260Z,16.35
2023-05-26T20:26:34.121Z,16.52
2023-05-26T20:29:07.717Z,14.82
2023-05-26T20:31:38.090Z,19.52
2023-05-26T20:34:09.139Z,20.77
2023-05-26T20:36:42.263Z,28.00
2023-05-26T20:39:13.835Z,23.50
2023-05-26T20:41:44.801Z,32.58
2023-05-26T20:44:18.290Z,31.08
2023-05-26T20:46:48.772Z,30.13
2023-05-26T20:49:20.246Z,29.63
2023-05-26T20:51:50.298Z,33.72
2023-05-26T20:54:21.346Z,34.38
2023-05-26T20:56:51.642Z,38.67
2023-05-26T20:59:22.336Z,34.20
2023-05-26T21:01:52.839Z,31.52
2023-05-26T21:04:25.266Z,32.88
2023-05-26T21:06:56.300Z,37.20
2023-05-26T21:09:27.225Z,38.15
2023-05-26T21:11:58.485Z,29.58
2023-05-26T21:14:31.163Z,29.17
2023-05-26T21:17:03.186Z,31.85
2023-05-26T21:19:35.690Z,31.65
2023-05-26T21:22:06.257Z,37.20
2023-05-26T21:24:36.313Z,26.83
2023-05-26T21:27:08.306Z,33.05
2023-05-26T21:29:39.892Z,34.22
2023-05-26T21:32:11.052Z,34.25
2023-05-26T21:34:42.578Z,35.85
2023-05-26T21:37:13.363Z,29.13
2023-05-26T21:39:44.256Z,33.30
2023-05-26T21:42:14.690Z,33.22
2023-05-26T21:44:45.399Z,27.25
2023-05-26T21:47:16.369Z,30.20
2023-05-26T21:49:46.859Z,34.65
2023-05-26T21:52:17.357Z,31.73
2023-05-26T21:54:48.290Z,27.83
2023-05-26T21:57:19.208Z,34.10
2023-05-26T21:59:50.333Z,29.58
2023-05-26T22:02:21.372Z,32.40
2023-05-26T22:04:52.662Z,23.55
2023-05-26T22:07:23.405Z,26.05
2023-05-26T22:09:54.061Z,39.13
2023-05-26T22:12:25.433Z,36.10
2023-05-26T22:14:58.865Z,31.73
2023-05-26T22:17:30.751Z,27.13
2023-05-26T22:20:01.350Z,26.75
2023-05-26T22:22:33.847Z,30.65
2023-05-26T22:25:06.373Z,29.90
2023-05-26T22:27:36.837Z,29.58
2023-05-26T22:30:07.785Z,27.40
2023-05-26T22:32:38.561Z,28.35
2023-05-26T22:35:09.785Z,29.67
2023-05-26T22:37:40.436Z,29.80
2023-05-26T22:40:11.222Z,29.40
2023-05-26T22:42:42.491Z,28.48
2023-05-26T22:45:13.377Z,27.35
2023-05-26T22:47:44.407Z,27.20
2023-05-26T22:50:15.923Z,25.92
2023-05-26T22:52:47.310Z,25.20
2023-05-26T22:55:21.468Z,23.75
2023-05-26T22:57:57.234Z,23.02
2023-05-26T23:00:28.291Z,23.33
2023-05-26T23:03:01.005Z,24.90
2023-05-26T23:05:31.436Z,26.75
2023-05-26T23:08:02.404Z,26.67
2023-05-26T23:10:33.528Z,28.70
2023-05-26T23:13:05.530Z,29.38
2023-05-26T23:15:36.833Z,26.80
2023-05-26T23:18:07.427Z,32.97
2023-05-26T23:20:38.475Z,26.45
2023-05-26T23:23:09.494Z,26.60
2023-05-26T23:25:42.935Z,30.63
2023-05-26T23:28:13.798Z,27.92
2023-05-26T23:30:44.916Z,26.65
2023-05-26T23:33:15.595Z,32.78
2023-05-26T23:35:48.953Z,28.60
2023-05-26T23:38:20.368Z,30.98
2023-05-26T23:40:50.690Z,34.13
2023-05-26T23:43:21.764Z,31.67
2023-05-26T23:45:53.578Z,32.55
2023-05-26T23:48:25.373Z,23.52
2023-05-26T23:51:02.164Z,27.83
2023-05-26T23:53:32.603Z,34.75
2023-05-26T23:56:03.096Z,31.13
2023-05-26T23:58:34.142Z,27.02
